x

Smith Island, Wa (sisw1) Weather Station

2:00 - Tue 24th Jan 2017 All times are PST. -8 hours from GMT.

  • Wind
    8mph, 9mph gusts
  • Aire Temp 42°f
  • Sea Pressure 1016.7mb
  • Smith Island, Wa
  • Smith Island, Wa

More Historic Weather Station data

Upgrade to MSW Pro to gain access to the past 30 days of data for over 8000 Wavebouys and Weather Stations around the globe.

Join Pro

Comparision Forecast

View Surf forecast
   
mar 01/24 2:00 8 9 mph 1016.7mb 42f
1:00 9 10 mph 1016.4mb 43f
12:00 7 8 mph 1016.5mb 43f
lun 01/23 11:00 5
mph
1015.9mb 42f
10:00 2
mph
1015.3mb 42f
9:00 2
mph
1014.5mb 43f
8:00 3
mph
1014.2mb 44f
7:00 6 7 mph 1013.8mb 44f
6:00 10
mph
1013.4mb 44f
5:00 6 7 mph 1012.9mb 44f
4:00 7 8 mph 1012.4mb 45f
3:00 8 10 mph 1011.8mb 45f
2:00 14 15 mph 1011.4mb 44f
1:00 11 15 mph 1011.1mb 45f
12:00 9 10 mph 1010.9mb 44f
11:00 3 5 mph 1010.6mb 44f
10:00 2
mph
1009.9mb 42f
9:00 5
mph
1009.2mb 41f
8:00 9
mph
1008.3mb 41f
7:00  -  mph 1007.4mb 41f
6:00 6 7 mph 1006.5mb 41f
5:00 8
mph
1005.7mb 40f
4:00 8 9 mph 1005.2mb 41f
3:00 7
mph
1004.5mb 41f
2:00 5 6 mph 1003.6mb 42f
1:00 5 7 mph 1003mb 42f
12:00 13 14 mph 1002.5mb 42f
dom 01/22 11:00 18 20 mph 1002.1mb 42f
10:00 17 18 mph 1001.8mb 42f
9:00 22 23 mph 1001.3mb 43f
8:00 18 21 mph 1000.9mb 43f
7:00 23 26 mph 1000.7mb 44f
6:00 20 22 mph 1000.6mb 44f
5:00 24 26 mph 1000.4mb 45f
4:00 20 22 mph 1000.4mb 45f
3:00 25 29 mph 999.7mb 46f
2:00 24 31 mph 999.1mb 45f
1:00 33 37 mph 998.5mb 46f
12:00 29 33 mph 998.4mb 46f
11:00 24 26 mph 998.4mb 44f
10:00 20 24 mph 998.1mb 44f
9:00 14 15 mph 996.8mb 44f
8:00 8 9 mph 996.1mb 43f
7:00 6 7 mph 996mb 42f
6:00 10 11 mph 996.6mb 43f
5:00 14 15 mph 997.4mb 43f
4:00 18 20 mph 998.4mb 44f
3:00 20 21 mph 999.9mb 45f
2:00 23 25 mph 1000.3mb 45f
1:00 25 29 mph 1000.8mb 45f
12:00 21 23 mph 1001.3mb 45f
sáb 01/21 11:00 22 24 mph 1001.1mb 45f
10:00 24 26 mph 1000.5mb 45f
9:00 21 22 mph 1000.6mb 46f
8:00 16 18 mph 999.9mb 47f
7:00 17 18 mph 999.1mb 47f
6:00 13 14 mph 998.1mb 47f
5:00 15
mph
997.3mb 47f
4:00 15 16 mph 996.7mb 48f
3:00 20 22 mph 995.9mb 48f
2:00 22 24 mph 995.1mb 48f
1:00 17 20 mph 994.9mb 47f
12:00 23 24 mph 994.6mb 47f
11:00 20 22 mph 994.3mb 48f
10:00 20 21 mph 993.3mb 47f
9:00 24 28 mph 992.4mb 46f
8:00 15 16 mph 991.8mb 45f
7:00 18 20 mph 991.2mb 45f
6:00 14 16 mph 990.8mb 45f
5:00 17 20 mph 990.4mb 45f
4:00 15 17 mph 990.1mb 45f
3:00 14 16 mph 990mb 45f
2:00 14
mph
989.4mb 45f
1:00 14 16 mph 988.9mb 45f
12:00 11 13 mph 988.5mb 45f
vie 01/20 11:00 11 13 mph 988.1mb 46f
10:00 13
mph
987.7mb 46f
9:00 9 10 mph 987.5mb 46f
8:00 10
mph
987.1mb 46f
7:00 9 10 mph 986.7mb 46f
6:00 10 11 mph 986.2mb 46f
5:00 9 11 mph 985.9mb 46f
4:00 9 10 mph 985.9mb 46f
3:00 8
mph
985.7mb 47f
2:00 3 7 mph 985.8mb 46f
1:00 6 7 mph 986.1mb 48f
12:00 10
mph
986.5mb 46f